Time;durP1;ratioP1;P1;durP2;ratioP2;P2;SDS_P1;SDS_P2;PMS_P1;PMS_P2;Temp;Humidity;BMP_temperature;BMP_pressure;BME280_temperature;BME280_humidity;BME280_pressure;Samples;Min_cycle;Max_cycle;Signal;HPM_P1;HPM_P2
2022/12/04 00:00:39;;;;;;;1999.90;999.90;;;1.20;99.90;;;;;;5038646;28;20040;-67
2022/12/04 00:03:05;;;;;;;1999.90;999.90;;;1.20;99.90;;;;;;5042603;28;20123;-67
2022/12/04 00:05:30;;;;;;;1999.90;999.90;;;1.20;99.90;;;;;;5041970;28;20047;-67
2022/12/04 00:07:56;;;;;;;1999.90;999.90;;;1.20;99.90;;;;;;5040581;28;20045;-68
2022/12/04 00:10:22;;;;;;;1999.90;999.90;;;1.20;99.90;;;;;;5039688;28;20459;-67
2022/12/04 00:12:47;;;;;;;1999.90;999.90;;;1.20;99.90;;;;;;5041702;28;20068;-67
2022/12/04 00:15:14;;;;;;;1999.90;999.90;;;1.20;99.90;;;;;;5042572;28;20359;-67
2022/12/04 00:17:39;;;;;;;1999.90;999.90;;;1.20;99.90;;;;;;5040289;28;20056;-68
2022/12/04 00:20:06;;;;;;;1999.90;999.90;;;1.10;99.90;;;;;;5030283;28;20041;-68
2022/12/04 00:22:32;;;;;;;1999.90;999.90;;;1.20;99.90;;;;;;5036242;28;20098;-68
2022/12/04 00:24:57;;;;;;;1999.90;999.90;;;1.20;99.90;;;;;;5036194;28;20093;-68
2022/12/04 00:27:23;;;;;;;1999.90;999.90;;;1.10;99.90;;;;;;5037097;28;20521;-67
2022/12/04 00:29:49;;;;;;;1999.90;999.90;;;1.20;99.90;;;;;;5039393;28;20045;-67
2022/12/04 00:32:14;;;;;;;1999.90;999.90;;;1.20;99.90;;;;;;5044471;28;20508;-67
2022/12/04 00:34:40;;;;;;;1999.90;999.90;;;1.10;99.90;;;;;;5040785;28;20131;-68
2022/12/04 00:37:06;;;;;;;1999.90;999.90;;;1.10;99.90;;;;;;5039193;28;20064;-67
2022/12/04 00:39:31;;;;;;;1999.90;999.90;;;1.20;99.90;;;;;;5040136;28;20071;-67
2022/12/04 00:41:57;;;;;;;1999.90;999.90;;;1.20;99.90;;;;;;5040912;28;20041;-67
2022/12/04 00:44:22;;;;;;;1999.90;999.90;;;1.20;99.90;;;;;;5037916;28;20037;-67
2022/12/04 00:46:48;;;;;;;1999.90;999.90;;;1.10;99.90;;;;;;5038043;28;20106;-67
2022/12/04 00:49:13;;;;;;;1999.90;999.90;;;1.10;99.90;;;;;;5024496;28;20095;-67
2022/12/04 00:51:39;;;;;;;1999.90;999.90;;;1.10;99.90;;;;;;5025717;28;20059;-67
2022/12/04 00:54:05;;;;;;;1999.90;999.90;;;1.10;99.90;;;;;;5039300;28;20076;-67
2022/12/04 00:56:30;;;;;;;1999.90;999.90;;;1.10;99.90;;;;;;5041617;28;20412;-67
2022/12/04 00:58:58;;;;;;;1999.90;999.90;;;1.10;99.90;;;;;;5038687;28;20032;-67
2022/12/04 01:01:25;;;;;;;1999.90;999.90;;;1.10;99.90;;;;;;5060812;28;20045;-68
2022/12/04 01:03:51;;;;;;;1999.90;999.90;;;1.10;99.90;;;;;;5045655;28;20060;-67
2022/12/04 01:06:28;;;;;;;1999.90;999.90;;;1.10;99.90;;;;;;5058216;28;20080;-67
2022/12/04 01:08:55;;;;;;;1999.90;999.90;;;1.10;99.90;;;;;;5027708;28;20056;-68
2022/12/04 01:11:22;;;;;;;1999.90;999.90;;;1.00;99.90;;;;;;5045597;28;20119;-67
2022/12/04 01:13:48;;;;;;;1999.90;999.90;;;1.10;99.90;;;;;;5029115;28;20044;-67
2022/12/04 01:16:23;;;;;;;1999.90;999.90;;;1.00;99.90;;;;;;5046395;28;20519;-67
2022/12/04 01:18:49;;;;;;;1999.90;999.90;;;1.10;99.90;;;;;;5044484;28;20037;-68
2022/12/04 01:21:15;;;;;;;1999.90;999.90;;;1.00;99.90;;;;;;5045630;28;20033;-67
2022/12/04 01:23:41;;;;;;;1999.90;999.90;;;1.00;99.90;;;;;;5058401;28;20607;-67
2022/12/04 01:26:07;;;;;;;1999.90;999.90;;;1.00;99.90;;;;;;5024145;28;20499;-67
2022/12/04 01:28:33;;;;;;;1999.90;999.90;;;1.00;99.90;;;;;;5045809;28;20069;-67
2022/12/04 01:31:00;;;;;;;1999.90;999.90;;;1.00;99.90;;;;;;5045853;28;20135;-67
2022/12/04 01:33:26;;;;;;;1999.90;999.90;;;1.00;99.90;;;;;;5040968;28;20697;-67
2022/12/04 01:35:55;;;;;;;1999.90;999.90;;;0.90;99.90;;;;;;5041809;28;20049;-67
2022/12/04 01:38:20;;;;;;;1999.90;999.90;;;0.90;99.90;;;;;;5045461;28;20039;-67
2022/12/04 01:40:46;;;;;;;1999.90;999.90;;;0.90;99.90;;;;;;5044946;28;20424;-67
2022/12/04 01:43:12;;;;;;;1999.90;999.90;;;0.90;99.90;;;;;;5045599;28;20045;-67
2022/12/04 01:45:52;;;;;;;1999.90;999.90;;;0.80;99.90;;;;;;5044208;28;20053;-68
2022/12/04 01:48:34;;;;;;;1999.90;999.90;;;0.80;99.90;;;;;;5045286;28;20510;-67
2022/12/04 01:51:04;;;;;;;1999.90;999.90;;;0.80;99.90;;;;;;5043917;28;20094;-68
2022/12/04 01:53:30;;;;;;;1999.90;999.90;;;0.80;99.90;;;;;;5043855;28;20131;-67
2022/12/04 01:55:56;;;;;;;1999.90;999.90;;;0.70;99.90;;;;;;5045364;28;20045;-67
2022/12/04 01:58:29;;;;;;;1999.90;999.90;;;0.70;99.90;;;;;;5043341;28;20039;-67
2022/12/04 02:01:00;;;;;;;1999.90;999.90;;;0.70;99.90;;;;;;5044030;28;20057;-67
2022/12/04 02:03:25;;;;;;;1999.90;999.90;;;0.70;99.90;;;;;;5056563;28;20067;-67
2022/12/04 02:05:51;;;;;;;1999.90;999.90;;;0.70;99.90;;;;;;5039675;28;20041;-67
2022/12/04 02:08:17;;;;;;;1999.90;999.90;;;0.70;99.90;;;;;;5040782;28;20466;-67
2022/12/04 02:11:01;;;;;;;1999.90;999.90;;;0.70;99.90;;;;;;5041730;28;20048;-67
2022/12/04 02:13:35;;;;;;;1999.90;999.90;;;0.70;99.90;;;;;;5037975;28;20512;-67
2022/12/04 02:16:32;;;;;;;1999.90;999.90;;;0.70;99.90;;;;;;5058280;28;20048;-67
2022/12/04 02:19:28;;;;;;;1999.90;999.90;;;0.60;99.90;;;;;;5039030;28;20049;-67
2022/12/04 02:21:57;;;;;;;1999.90;999.90;;;0.60;99.90;;;;;;5040476;28;20114;-67
2022/12/04 02:24:46;;;;;;;1999.90;999.90;;;0.60;99.90;;;;;;5038832;28;20683;-67
2022/12/04 02:27:38;;;;;;;1999.90;999.90;;;0.60;99.90;;;;;;5040553;28;20049;-67
2022/12/04 02:30:13;;;;;;;1999.90;999.90;;;0.60;99.90;;;;;;5038039;28;20118;-67
2022/12/04 02:32:59;;;;;;;1999.90;999.90;;;0.60;99.90;;;;;;5042878;28;20048;-67
2022/12/04 02:35:55;;;;;;;1999.90;999.90;;;0.60;99.90;;;;;;5040169;28;20132;-67
2022/12/04 02:38:40;;;;;;;1999.90;999.90;;;0.60;99.90;;;;;;5040817;28;20441;-67
2022/12/04 02:41:11;;;;;;;1999.90;999.90;;;0.60;99.90;;;;;;5038269;28;20400;-67
2022/12/04 02:43:43;;;;;;;1999.90;999.90;;;0.60;99.90;;;;;;5041610;28;20111;-67
2022/12/04 02:46:17;;;;;;;1999.90;999.90;;;0.60;99.90;;;;;;5040603;28;20183;-67
2022/12/04 02:48:48;;;;;;;1999.90;999.90;;;0.60;99.90;;;;;;5039860;28;20036;-67
2022/12/04 02:51:17;;;;;;;1999.90;999.90;;;0.60;99.90;;;;;;5038416;28;20153;-67
2022/12/04 02:53:51;;;;;;;1999.90;999.90;;;0.60;99.90;;;;;;5021999;28;20052;-67
2022/12/04 02:56:23;;;;;;;1999.90;999.90;;;0.60;99.90;;;;;;5038384;28;20453;-67
2022/12/04 02:58:50;;;;;;;1999.90;999.90;;;0.60;99.90;;;;;;5022137;28;20124;-67
2022/12/04 03:01:19;;;;;;;1999.90;999.90;;;0.50;99.90;;;;;;5039663;28;20037;-67
2022/12/04 03:04:18;;;;;;;1999.90;999.90;;;0.60;99.90;;;;;;5039809;28;20057;-67
2022/12/04 03:06:49;;;;;;;1999.90;999.90;;;0.60;99.90;;;;;;5038487;28;20072;-67
2022/12/04 03:09:29;;;;;;;1999.90;999.90;;;0.60;99.90;;;;;;5054999;28;20051;-67
2022/12/04 03:12:03;;;;;;;1999.90;999.90;;;0.60;99.90;;;;;;5041342;28;20179;-67
2022/12/04 03:14:33;;;;;;;1999.90;999.90;;;0.50;99.90;;;;;;5037216;28;20045;-67
2022/12/04 03:17:09;;;;;;;1999.90;999.90;;;0.50;99.90;;;;;;5055409;28;20560;-67
2022/12/04 03:19:40;;;;;;;1999.90;999.90;;;0.50;99.90;;;;;;5038740;28;20052;-67
2022/12/04 03:22:12;;;;;;;1999.90;999.90;;;0.50;99.90;;;;;;5036219;28;20037;-67
2022/12/04 03:24:43;;;;;;;1999.90;999.90;;;0.50;99.90;;;;;;5036881;28;20433;-67
2022/12/04 03:27:33;;;;;;;1999.90;999.90;;;0.50;99.90;;;;;;5037588;28;20139;-67
2022/12/04 03:30:11;;;;;;;1999.90;999.90;;;0.50;99.90;;;;;;5041658;28;20045;-67
2022/12/04 03:32:59;;;;;;;1999.90;999.90;;;0.50;99.90;;;;;;5040860;28;20128;-67
2022/12/04 03:35:47;;;;;;;1999.90;999.90;;;0.50;99.90;;;;;;5035166;28;20041;-67
2022/12/04 03:38:31;;;;;;;1999.90;999.90;;;0.50;99.90;;;;;;5036538;28;20120;-67
2022/12/04 03:41:23;;;;;;;1999.90;999.90;;;0.50;99.90;;;;;;5057623;28;20064;-67
2022/12/04 03:44:05;;;;;;;1999.90;999.90;;;0.50;99.90;;;;;;5041755;28;20060;-67
2022/12/04 03:46:52;;;;;;;1999.90;999.90;;;0.50;99.90;;;;;;5043331;28;20157;-67
2022/12/04 03:49:40;;;;;;;1999.90;999.90;;;0.50;99.90;;;;;;5044109;28;20052;-67
2022/12/04 03:52:28;;;;;;;1999.90;999.90;;;0.50;99.90;;;;;;5040620;28;20049;-67
2022/12/04 03:55:03;;;;;;;1999.90;999.90;;;0.50;99.90;;;;;;5043502;28;20041;-67
2022/12/04 03:57:33;;;;;;;1999.90;999.90;;;0.50;99.90;;;;;;5042567;28;20476;-67
2022/12/04 04:00:10;;;;;;;1999.90;999.90;;;0.50;99.90;;;;;;5059733;28;21198;-67
2022/12/04 04:02:41;;;;;;;1999.90;999.90;;;0.50;99.90;;;;;;5042913;28;20072;-67
2022/12/04 04:05:11;;;;;;;1999.90;999.90;;;0.40;99.90;;;;;;5043047;28;20049;-67
2022/12/04 04:07:49;;;;;;;1999.90;999.90;;;0.40;99.90;;;;;;5040484;28;20104;-67
2022/12/04 04:10:18;;;;;;;1999.90;999.90;;;0.40;99.90;;;;;;5040748;28;20051;-67
2022/12/04 04:24:15;;;;;;;1999.90;999.90;;;0.40;99.90;;;;;;5054254;28;20175;-67
2022/12/04 04:26:48;;;;;;;1999.90;999.90;;;0.40;99.90;;;;;;5039198;28;20048;-67
2022/12/04 04:29:14;;;;;;;1999.90;999.90;;;0.40;99.90;;;;;;5035815;28;20041;-67
2022/12/04 04:32:03;;;;;;;1999.90;999.90;;;0.40;99.90;;;;;;5040477;28;20033;-66
2022/12/04 04:34:47;;;;;;;1999.90;999.90;;;0.40;99.90;;;;;;5039002;28;20049;-67
2022/12/04 04:37:37;;;;;;;1999.90;999.90;;;0.40;99.90;;;;;;5056855;28;20485;-67
2022/12/04 04:40:17;;;;;;;1999.90;999.90;;;0.40;99.90;;;;;;5041774;28;20116;-67
2022/12/04 04:43:07;;;;;;;1999.90;999.90;;;0.40;99.90;;;;;;5025951;28;20041;-67
2022/12/04 04:45:38;;;;;;;1999.90;999.90;;;0.40;99.90;;;;;;5041062;28;20057;-67
2022/12/04 04:48:12;;;;;;;1999.90;999.90;;;0.40;99.90;;;;;;5041264;28;20049;-67
2022/12/04 04:50:38;;;;;;;1999.90;999.90;;;0.40;99.90;;;;;;5042842;28;20099;-67
2022/12/04 04:53:09;;;;;;;1999.90;999.90;;;0.40;99.90;;;;;;5041611;28;20045;-67
2022/12/04 04:55:36;;;;;;;1999.90;999.90;;;0.30;99.90;;;;;;5056993;28;20602;-67
2022/12/04 04:58:07;;;;;;;1999.90;999.90;;;0.30;99.90;;;;;;5041633;28;20075;-67
2022/12/04 05:00:32;;;;;;;1999.90;999.90;;;0.30;99.90;;;;;;5041635;28;20064;-67
2022/12/04 05:02:58;;;;;;;1999.90;999.90;;;0.30;99.90;;;;;;5019965;28;20116;-67
2022/12/04 05:05:24;;;;;;;1999.90;999.90;;;0.30;99.90;;;;;;5054339;28;20044;-67
2022/12/04 05:07:49;;;;;;;1999.90;999.90;;;0.40;99.90;;;;;;5025078;28;20378;-67
2022/12/04 05:10:15;;;;;;;1999.90;999.90;;;0.30;99.90;;;;;;5042620;28;20132;-67
2022/12/04 05:12:40;;;;;;;1999.90;999.90;;;0.30;99.90;;;;;;5024817;28;20049;-67
2022/12/04 05:15:06;;;;;;;1999.90;999.90;;;0.30;99.90;;;;;;5039998;28;20052;-67
2022/12/04 05:17:34;;;;;;;1999.90;999.90;;;0.40;99.90;;;;;;5022795;28;20041;-67
2022/12/04 05:20:00;;;;;;;1999.90;999.90;;;0.40;99.90;;;;;;5039497;28;20409;-67
2022/12/04 05:22:28;;;;;;;1999.90;999.90;;;0.40;99.90;;;;;;5022796;28;20051;-67
2022/12/04 05:24:54;;;;;;;1999.90;999.90;;;0.40;99.90;;;;;;5041207;28;20040;-67
2022/12/04 05:27:21;;;;;;;1999.90;999.90;;;0.30;99.90;;;;;;5038918;28;20456;-67
2022/12/04 05:29:47;;;;;;;1999.90;999.90;;;0.40;99.90;;;;;;5042132;28;20461;-67
2022/12/04 05:32:13;;;;;;;1999.90;999.90;;;0.40;99.90;;;;;;5042436;28;20136;-67
2022/12/04 05:34:39;;;;;;;1999.90;999.90;;;0.40;99.90;;;;;;5041138;28;20131;-67
2022/12/04 05:37:04;;;;;;;1999.90;999.90;;;0.30;99.90;;;;;;5025067;28;20044;-67
2022/12/04 05:39:30;;;;;;;1999.90;999.90;;;0.40;99.90;;;;;;5043853;28;20510;-67
2022/12/04 05:41:56;;;;;;;1999.90;999.90;;;0.30;99.90;;;;;;5044149;28;20052;-67
2022/12/04 05:44:21;;;;;;;1999.90;999.90;;;0.30;99.90;;;;;;5045826;28;20036;-67
2022/12/04 05:46:47;;;;;;;1999.90;999.90;;;0.40;99.90;;;;;;5044007;28;20049;-67
2022/12/04 05:49:12;;;;;;;1999.90;999.90;;;0.30;99.90;;;;;;5045909;28;20053;-67
2022/12/04 05:51:38;;;;;;;1999.90;999.90;;;0.40;99.90;;;;;;5043456;28;20505;-67
2022/12/04 05:54:03;;;;;;;1999.90;999.90;;;0.30;99.90;;;;;;5027758;28;20139;-67
2022/12/04 05:56:29;;;;;;;1999.90;999.90;;;0.30;99.90;;;;;;5044173;28;20184;-67
2022/12/04 05:58:55;;;;;;;1999.90;999.90;;;0.40;99.90;;;;;;5045558;28;20041;-67
2022/12/04 06:01:22;;;;;;;1999.90;999.90;;;0.40;99.90;;;;;;5046103;28;20048;-67
2022/12/04 06:03:49;;;;;;;1999.90;999.90;;;0.40;99.90;;;;;;5021059;28;20045;-67
2022/12/04 06:06:18;;;;;;;1999.90;999.90;;;0.40;99.90;;;;;;5044830;28;20763;-67
2022/12/04 06:08:43;;;;;;;1999.90;999.90;;;0.40;99.90;;;;;;5056273;28;20049;-67
2022/12/04 06:11:14;;;;;;;1999.90;999.90;;;0.40;99.90;;;;;;5042259;28;20161;-67
2022/12/04 06:13:41;;;;;;;1999.90;999.90;;;0.40;99.90;;;;;;5056436;28;20151;-67
2022/12/04 06:16:14;;;;;;;1999.90;999.90;;;0.40;99.90;;;;;;5041169;28;20033;-67
2022/12/04 06:18:40;;;;;;;1999.90;999.90;;;0.40;99.90;;;;;;5039209;28;20090;-67
2022/12/04 06:21:05;;;;;;;1999.90;999.90;;;0.40;99.90;;;;;;5039699;28;20048;-67
2022/12/04 06:23:31;;;;;;;1999.90;999.90;;;0.40;99.90;;;;;;5041343;28;20025;-67
2022/12/04 06:26:00;;;;;;;1999.90;999.90;;;0.50;99.90;;;;;;5024179;28;20122;-67
2022/12/04 06:28:26;;;;;;;1999.90;999.90;;;0.40;99.90;;;;;;5040301;28;20059;-67
2022/12/04 06:30:51;;;;;;;1999.90;999.90;;;0.50;99.90;;;;;;5040310;28;20045;-67
2022/12/04 06:33:17;;;;;;;1999.90;999.90;;;0.50;99.90;;;;;;5041526;28;20563;-67
2022/12/04 06:35:42;;;;;;;1999.90;999.90;;;0.50;99.90;;;;;;5039670;28;20041;-67
2022/12/04 06:38:08;;;;;;;1999.90;999.90;;;0.50;99.90;;;;;;5055607;28;20064;-67
2022/12/04 06:40:33;;;;;;;1999.90;999.90;;;0.50;99.90;;;;;;5057463;28;20028;-67
2022/12/04 06:42:59;;;;;;;1999.90;999.90;;;0.50;99.90;;;;;;5040723;28;20040;-67
2022/12/04 06:45:24;;;;;;;1999.90;999.90;;;0.50;99.90;;;;;;5039139;28;20506;-67
2022/12/04 06:47:50;;;;;;;1999.90;999.90;;;0.50;99.90;;;;;;5022088;28;20479;-67
2022/12/04 06:50:16;;;;;;;1999.90;999.90;;;0.60;99.90;;;;;;5037990;28;20041;-67
2022/12/04 06:52:42;;;;;;;1999.90;999.90;;;0.60;99.90;;;;;;5038896;28;20041;-67
2022/12/04 06:55:08;;;;;;;1999.90;999.90;;;0.60;99.90;;;;;;5036050;28;20432;-67
2022/12/04 06:57:33;;;;;;;1999.90;999.90;;;0.60;99.90;;;;;;5030655;28;20044;-67
2022/12/04 06:59:59;;;;;;;1999.90;999.90;;;0.60;99.90;;;;;;5040555;28;20037;-67
2022/12/04 07:02:24;;;;;;;1999.90;999.90;;;0.60;99.90;;;;;;5039377;28;20064;-67
2022/12/04 07:04:54;;;;;;;1999.90;999.90;;;0.60;99.90;;;;;;5054862;28;20040;-67
2022/12/04 07:07:20;;;;;;;1999.90;999.90;;;0.60;99.90;;;;;;5041427;28;20041;-67
2022/12/04 07:09:46;;;;;;;1999.90;999.90;;;0.60;99.90;;;;;;5038561;28;20040;-67
2022/12/04 07:12:11;;;;;;;1999.90;999.90;;;0.60;99.90;;;;;;5041908;28;20033;-67
2022/12/04 07:14:37;;;;;;;1999.90;999.90;;;0.60;99.90;;;;;;5039495;28;20037;-67
2022/12/04 07:17:03;;;;;;;1999.90;999.90;;;0.60;99.90;;;;;;5040185;28;20052;-68
2022/12/04 07:19:28;;;;;;;1999.90;999.90;;;0.60;99.90;;;;;;5038320;28;20816;-67
2022/12/04 07:21:54;;;;;;;1999.90;999.90;;;0.60;99.90;;;;;;5039353;28;20043;-67
2022/12/04 07:24:19;;;;;;;1999.90;999.90;;;0.60;99.90;;;;;;5040936;28;20072;-67
2022/12/04 07:26:45;;;;;;;1999.90;999.90;;;0.60;99.90;;;;;;5022900;28;20052;-67
2022/12/04 07:29:11;;;;;;;1999.90;999.90;;;0.60;99.90;;;;;;5037727;28;20037;-67
2022/12/04 07:31:37;;;;;;;1999.90;999.90;;;0.60;99.90;;;;;;5039012;28;20047;-67
2022/12/04 07:34:02;;;;;;;1999.90;999.90;;;0.60;99.90;;;;;;5040243;28;20041;-67
2022/12/04 07:36:28;;;;;;;1999.90;999.90;;;0.50;99.90;;;;;;5040362;28;20489;-67
2022/12/04 07:38:55;;;;;;;1999.90;999.90;;;0.50;99.90;;;;;;5043317;28;20029;-67
2022/12/04 07:41:23;;;;;;;1999.90;999.90;;;0.60;99.90;;;;;;5042518;28;20511;-67
2022/12/04 07:43:49;;;;;;;1999.90;999.90;;;0.60;99.90;;;;;;5044692;28;20053;-67
2022/12/04 07:46:21;;;;;;;1999.90;999.90;;;0.60;99.90;;;;;;5043719;28;20140;-67
2022/12/04 07:48:46;;;;;;;1999.90;999.90;;;0.60;99.90;;;;;;5025914;28;20489;-67
2022/12/04 07:51:15;;;;;;;1999.90;999.90;;;0.60;99.90;;;;;;5025156;28;20048;-67
2022/12/04 07:53:41;;;;;;;1999.90;999.90;;;0.60;99.90;;;;;;5059303;28;20653;-67
2022/12/04 07:56:08;;;;;;;1999.90;999.90;;;0.60;99.90;;;;;;5025529;28;20037;-67
2022/12/04 07:58:34;;;;;;;1999.90;999.90;;;0.60;99.90;;;;;;5043174;28;20044;-67
2022/12/04 08:01:08;;;;;;;1999.90;999.90;;;0.60;99.90;;;;;;5043616;28;20033;-67
2022/12/04 08:03:34;;;;;;;1999.90;999.90;;;0.60;99.90;;;;;;5021466;28;20044;-67
2022/12/04 08:06:04;;;;;;;1999.90;999.90;;;0.60;99.90;;;;;;5042922;28;20040;-67
2022/12/04 08:08:30;;;;;;;1999.90;999.90;;;0.60;99.90;;;;;;5038763;28;20052;-67
2022/12/04 08:10:56;;;;;;;1999.90;999.90;;;0.60;99.90;;;;;;5035440;28;20064;-67
2022/12/04 08:13:22;;;;;;;1999.90;999.90;;;0.70;99.90;;;;;;5036703;28;20056;-67
2022/12/04 08:15:47;;;;;;;1999.90;999.90;;;0.70;99.90;;;;;;5020552;28;20087;-67
2022/12/04 08:18:13;;;;;;;1999.90;999.90;;;0.70;99.90;;;;;;5021460;28;20048;-67
2022/12/04 08:20:38;;;;;;;1999.90;999.90;;;0.70;99.90;;;;;;5055202;28;20119;-67
2022/12/04 08:23:04;;;;;;;1999.90;999.90;;;0.70;99.90;;;;;;5037072;28;20181;-67
2022/12/04 08:25:29;;;;;;;1999.90;999.90;;;0.80;99.90;;;;;;5037803;28;20037;-67
2022/12/04 08:27:55;;;;;;;1999.90;999.90;;;0.70;99.90;;;;;;5038818;28;20040;-67
2022/12/04 08:30:21;;;;;;;1999.90;999.90;;;0.80;99.90;;;;;;5021424;28;20052;-67
2022/12/04 08:32:47;;;;;;;1999.90;999.90;;;0.80;99.90;;;;;;5040619;28;20563;-67
2022/12/04 08:35:12;;;;;;;1999.90;999.90;;;0.80;99.90;;;;;;5041915;28;20045;-67
2022/12/04 08:37:38;;;;;;;1999.90;999.90;;;0.80;99.90;;;;;;5042893;28;20884;-67
2022/12/04 08:40:04;;;;;;;1999.90;999.90;;;0.90;99.90;;;;;;5040184;28;20124;-67
2022/12/04 08:42:30;;;;;;;1999.90;999.90;;;0.90;99.90;;;;;;5038832;28;20074;-67
2022/12/04 08:44:55;;;;;;;1999.90;999.90;;;0.90;99.90;;;;;;5037450;28;20040;-67
2022/12/04 08:47:21;;;;;;;1999.90;999.90;;;0.90;99.90;;;;;;5037693;28;20048;-67
2022/12/04 08:49:46;;;;;;;1999.90;999.90;;;1.00;99.90;;;;;;5038349;28;20083;-67
2022/12/04 08:52:12;;;;;;;1999.90;999.90;;;1.00;99.90;;;;;;5038375;28;20029;-67
2022/12/04 08:54:37;;;;;;;1999.90;999.90;;;1.00;99.90;;;;;;5037119;28;20156;-67
2022/12/04 08:57:04;;;;;;;1999.90;999.90;;;1.10;99.90;;;;;;5038271;28;20033;-67
2022/12/04 08:59:29;;;;;;;1999.90;999.90;;;1.10;99.90;;;;;;5036247;28;20679;-67
2022/12/04 09:01:55;;;;;;;1999.90;999.90;;;1.10;99.90;;;;;;5037140;28;20034;-67
2022/12/04 09:04:20;;;;;;;1999.90;999.90;;;1.20;99.90;;;;;;5038853;28;20210;-67
2022/12/04 09:06:46;;;;;;;1999.90;999.90;;;1.20;99.90;;;;;;5039520;28;20033;-67
2022/12/04 09:09:12;;;;;;;1999.90;999.90;;;1.20;99.90;;;;;;5039577;28;20630;-67
2022/12/04 09:11:37;;;;;;;1999.90;999.90;;;1.20;99.90;;;;;;5036824;28;20036;-67
2022/12/04 09:14:03;;;;;;;1999.90;999.90;;;1.30;99.90;;;;;;5037542;28;20095;-67
2022/12/04 09:16:29;;;;;;;1999.90;999.90;;;1.30;99.90;;;;;;5040626;28;20477;-67
2022/12/04 09:18:55;;;;;;;1999.90;999.90;;;1.30;99.90;;;;;;5035776;28;20053;-67
2022/12/04 09:21:22;;;;;;;1999.90;999.90;;;1.40;99.90;;;;;;5035904;28;20045;-67
2022/12/04 09:23:48;;;;;;;1999.90;999.90;;;1.40;99.90;;;;;;5041148;28;20055;-67
2022/12/04 09:26:22;;;;;;;1999.90;999.90;;;1.40;99.90;;;;;;5057746;28;20037;-67
2022/12/04 09:28:50;;;;;;;1999.90;999.90;;;1.40;99.90;;;;;;5038913;28;20079;-67
2022/12/04 09:31:17;;;;;;;1999.90;999.90;;;1.50;99.90;;;;;;5042423;28;20141;-67
2022/12/04 09:33:43;;;;;;;1999.90;999.90;;;1.50;99.90;;;;;;5023913;28;20080;-67
2022/12/04 09:36:14;;;;;;;1999.90;999.90;;;1.50;99.90;;;;;;5042227;28;20139;-67
2022/12/04 09:38:44;;;;;;;1999.90;999.90;;;1.60;99.90;;;;;;5046527;28;20179;-67
2022/12/04 09:41:28;;;;;;;1999.90;999.90;;;1.60;99.90;;;;;;5044067;28;20722;-67
2022/12/04 09:43:56;;;;;;;1999.90;999.90;;;1.60;99.90;;;;;;5054900;28;20046;-67
2022/12/04 09:46:35;;;;;;;1999.90;999.90;;;1.70;99.90;;;;;;5027642;28;20107;-67
2022/12/04 09:49:18;;;;;;;1999.90;999.90;;;1.70;99.90;;;;;;5042736;28;20056;-67
2022/12/04 09:51:45;;;;;;;1999.90;999.90;;;1.70;99.90;;;;;;5057664;28;20457;-67
2022/12/04 09:54:16;;;;;;;1999.90;999.90;;;1.70;99.90;;;;;;5022139;28;20668;-67
2022/12/04 09:56:48;;;;;;;1999.90;999.90;;;1.80;99.90;;;;;;5040312;28;20079;-67
2022/12/04 09:59:20;;;;;;;1999.90;999.90;;;1.80;99.90;;;;;;5041933;28;20041;-67
2022/12/04 10:01:59;;;;;;;;;;;1.80;99.90;;;;;;5039766;28;20167;-67
2022/12/04 10:04:24;;;;;;;1999.90;999.90;;;1.90;99.90;;;;;;5016718;28;19932;-67
2022/12/04 10:07:09;;;;;;;1999.90;999.90;;;1.90;99.90;;;;;;5043559;28;20033;-67
2022/12/04 10:09:44;;;;;;;1999.90;999.90;;;2.00;99.90;;;;;;5053035;28;20069;-67
2022/12/04 10:12:30;;;;;;;1999.90;999.90;;;2.00;99.90;;;;;;5043279;28;20037;-67
2022/12/04 10:15:09;;;;;;;1999.90;999.90;;;2.10;99.90;;;;;;5036623;28;20076;-67
2022/12/04 10:17:59;;;;;;;1999.90;999.90;;;2.10;99.90;;;;;;5036874;28;20404;-67
2022/12/04 10:20:34;;;;;;;1999.90;999.90;;;2.10;99.90;;;;;;5039919;28;20174;-67
2022/12/04 10:23:44;;;;;;;1999.90;999.90;;;2.20;99.90;;;;;;5039482;28;20041;-67
2022/12/04 10:26:14;;;;;;;1999.90;999.90;;;2.20;99.90;;;;;;5002163;28;20045;-68
2022/12/04 10:28:46;;;;;;;1999.90;999.90;;;2.30;99.90;;;;;;5003241;28;20065;-67
2022/12/04 10:31:14;;;;;;;1999.90;999.90;;;2.30;99.90;;;;;;5000724;28;20529;-67
2022/12/04 10:33:50;;;;;;;1999.90;999.90;;;2.40;99.90;;;;;;5019438;28;20127;-69
2022/12/04 10:36:19;;;;;;;1999.90;999.90;;;2.40;99.90;;;;;;5001052;28;20049;-69
2022/12/04 10:38:52;;;;;;;1999.90;999.90;;;2.50;99.90;;;;;;4999858;28;20356;-69
2022/12/04 10:41:29;;;;;;;1999.90;999.90;;;2.50;99.90;;;;;;5018448;28;20107;-69
2022/12/04 10:43:55;;;;;;;1999.90;999.90;;;2.60;99.90;;;;;;4995657;28;20052;-70
2022/12/04 10:46:27;;;;;;;1999.90;999.90;;;2.60;99.90;;;;;;5013466;28;20061;-69
2022/12/04 10:48:58;;;;;;;1999.90;999.90;;;2.60;99.90;;;;;;5016909;28;20484;-70
2022/12/04 10:51:24;;;;;;;1999.90;999.90;;;2.60;99.90;;;;;;5001412;28;20056;-70
2022/12/04 10:53:50;;;;;;;1999.90;999.90;;;2.60;99.90;;;;;;5018216;28;20041;-69
2022/12/04 10:56:19;;;;;;;1999.90;999.90;;;2.60;99.90;;;;;;5005923;28;20053;-69
2022/12/04 10:58:56;;;;;;;1999.90;999.90;;;2.60;99.90;;;;;;5039958;28;20242;-69
2022/12/04 11:01:22;;;;;;;1999.90;999.90;;;2.60;99.90;;;;;;5038658;28;20151;-70
2022/12/04 11:03:57;;;;;;;1999.90;999.90;;;2.70;99.90;;;;;;5037230;28;20049;-69
2022/12/04 11:06:25;;;;;;;1999.90;999.90;;;2.60;99.90;;;;;;5038511;28;20056;-69
2022/12/04 11:08:52;;;;;;;1999.90;999.90;;;2.60;99.90;;;;;;5033801;28;20148;-69
2022/12/04 11:11:38;;;;;;;1999.90;999.90;;;2.60;99.90;;;;;;5041847;28;20043;-70
2022/12/04 11:14:16;;;;;;;1999.90;999.90;;;2.60;99.90;;;;;;5044912;28;20044;-69
2022/12/04 11:16:44;;;;;;;1999.90;999.90;;;2.70;99.90;;;;;;5052630;28;20044;-70
2022/12/04 11:19:22;;;;;;;1999.90;999.90;;;2.70;99.90;;;;;;5039707;28;20061;-70
2022/12/04 11:21:49;;;;;;;1999.90;999.90;;;2.70;99.90;;;;;;5036383;28;20040;-69
2022/12/04 11:24:24;;;;;;;1999.90;999.90;;;2.80;99.90;;;;;;5024932;28;20540;-70
2022/12/04 11:26:54;;;;;;;1999.90;999.90;;;2.80;99.90;;;;;;5035767;28;20056;-70
2022/12/04 11:29:44;;;;;;;1999.90;999.90;;;2.80;99.90;;;;;;5052358;28;20437;-70
2022/12/04 11:32:40;;;;;;;1999.90;999.90;;;2.80;99.90;;;;;;5036323;28;20057;-70
2022/12/04 11:35:22;;;;;;;1999.90;999.90;;;2.90;99.90;;;;;;5034736;28;20049;-69
2022/12/04 11:38:03;;;;;;;1999.90;999.90;;;2.80;99.90;;;;;;5035691;28;20447;-70
2022/12/04 11:40:29;;;;;;;1999.90;999.90;;;2.80;99.90;;;;;;5033829;28;20049;-70
2022/12/04 11:42:59;;;;;;;1999.90;999.90;;;2.80;99.90;;;;;;5026977;28;20037;-70
2022/12/04 11:45:25;;;;;;;1999.90;999.90;;;2.80;99.90;;;;;;5053425;28;20061;-70
2022/12/04 11:47:59;;;;;;;1999.90;999.90;;;2.90;99.90;;;;;;5019027;28;20047;-70
2022/12/04 11:50:48;;;;;;;1999.90;999.90;;;2.80;99.90;;;;;;5034993;28;20496;-70
2022/12/04 11:53:34;;;;;;;1999.90;999.90;;;2.80;99.90;;;;;;5032096;28;20486;-70
2022/12/04 11:56:33;;;;;;;1999.90;999.90;;;2.80;99.90;;;;;;5030366;28;20046;-69
2022/12/04 11:59:31;;;;;;;1999.90;999.90;;;2.80;99.90;;;;;;5030252;28;20064;-69
2022/12/04 12:02:12;;;;;;;1999.90;999.90;;;2.80;99.90;;;;;;5034558;28;20389;-69
2022/12/04 12:04:52;;;;;;;1999.90;999.90;;;2.80;99.90;;;;;;5037369;28;20397;-70
2022/12/04 12:07:52;;;;;;;1999.90;999.90;;;2.80;99.90;;;;;;5014554;28;20037;-70
2022/12/04 12:10:27;;;;;;;1999.90;999.90;;;2.80;99.90;;;;;;5019194;28;20495;-70
2022/12/04 12:13:12;;;;;;;1999.90;999.90;;;2.80;99.90;;;;;;5051737;28;20044;-70
2022/12/04 12:15:57;;;;;;;1999.90;999.90;;;2.80;99.90;;;;;;5033908;28;20619;-70
2022/12/04 12:18:48;;;;;;;1999.90;999.90;;;2.80;99.90;;;;;;5019533;28;20515;-70
2022/12/04 12:21:28;;;;;;;1999.90;999.90;;;2.80;99.90;;;;;;5048154;28;20146;-70
2022/12/04 12:24:12;;;;;;;1999.90;999.90;;;2.80;99.90;;;;;;5047866;28;20715;-70
2022/12/04 12:26:40;;;;;;;1999.90;999.90;;;2.80;99.90;;;;;;5034722;28;20041;-70
2022/12/04 12:29:24;;;;;;;1999.90;999.90;;;2.80;99.90;;;;;;5021406;28;20037;-69
2022/12/04 12:32:20;;;;;;;1999.90;999.90;;;2.80;99.90;;;;;;5034788;28;20052;-70
2022/12/04 12:34:47;;;;;;;1999.90;999.90;;;2.90;99.90;;;;;;5049423;28;20048;-70
2022/12/04 12:37:34;;;;;;;1999.90;999.90;;;2.90;99.90;;;;;;5027666;28;20041;-70
2022/12/04 12:40:08;;;;;;;1999.90;999.90;;;2.90;99.90;;;;;;5036360;28;20832;-69